sensor_id;sensor_type;location;lat;lon;timestamp;temperature;humidity
6357;DHT22;3211;53.452;-2.264;2023-10-09T00:01:03;15.90;99.90
6357;DHT22;3211;53.452;-2.264;2023-10-09T00:03:39;15.90;99.90
6357;DHT22;3211;53.452;-2.264;2023-10-09T00:06:08;15.90;99.90
6357;DHT22;3211;53.452;-2.264;2023-10-09T00:08:36;15.90;99.90
6357;DHT22;3211;53.452;-2.264;2023-10-09T00:11:24;15.90;99.90
6357;DHT22;3211;53.452;-2.264;2023-10-09T00:14:14;15.80;99.90
6357;DHT22;3211;53.452;-2.264;2023-10-09T00:16:44;15.90;99.90
6357;DHT22;3211;53.452;-2.264;2023-10-09T00:19:14;16.00;99.90
6357;DHT22;3211;53.452;-2.264;2023-10-09T00:21:46;16.00;99.90
6357;DHT22;3211;53.452;-2.264;2023-10-09T00:24:13;15.90;99.90
6357;DHT22;3211;53.452;-2.264;2023-10-09T00:26:49;15.80;99.90
6357;DHT22;3211;53.452;-2.264;2023-10-09T00:29:17;15.80;99.90
6357;DHT22;3211;53.452;-2.264;2023-10-09T00:31:51;15.70;99.90
6357;DHT22;3211;53.452;-2.264;2023-10-09T00:34:38;15.80;99.90
6357;DHT22;3211;53.452;-2.264;2023-10-09T00:37:06;15.70;99.90
6357;DHT22;3211;53.452;-2.264;2023-10-09T00:39:36;15.70;99.90
6357;DHT22;3211;53.452;-2.264;2023-10-09T00:42:10;15.70;99.90
6357;DHT22;3211;53.452;-2.264;2023-10-09T00:44:40;15.70;99.90
6357;DHT22;3211;53.452;-2.264;2023-10-09T00:47:09;15.60;99.90
6357;DHT22;3211;53.452;-2.264;2023-10-09T00:49:58;15.60;99.90
6357;DHT22;3211;53.452;-2.264;2023-10-09T00:52:29;15.60;99.90
6357;DHT22;3211;53.452;-2.264;2023-10-09T00:55:03;15.50;99.90
6357;DHT22;3211;53.452;-2.264;2023-10-09T00:57:42;15.50;99.90
6357;DHT22;3211;53.452;-2.264;2023-10-09T01:00:14;15.50;99.90
6357;DHT22;3211;53.452;-2.264;2023-10-09T01:02:58;15.60;99.90
6357;DHT22;3211;53.452;-2.264;2023-10-09T01:05:44;15.60;99.90
6357;DHT22;3211;53.452;-2.264;2023-10-09T01:08:17;15.60;99.90
6357;DHT22;3211;53.452;-2.264;2023-10-09T01:10:54;15.60;99.90
6357;DHT22;3211;53.452;-2.264;2023-10-09T01:13:25;15.60;99.90
6357;DHT22;3211;53.452;-2.264;2023-10-09T01:16:06;15.50;99.90
6357;DHT22;3211;53.452;-2.264;2023-10-09T01:18:36;15.60;99.90
6357;DHT22;3211;53.452;-2.264;2023-10-09T01:21:06;15.60;99.90
6357;DHT22;3211;53.452;-2.264;2023-10-09T01:23:35;15.60;99.90
6357;DHT22;3211;53.452;-2.264;2023-10-09T01:26:13;15.50;99.90
6357;DHT22;3211;53.452;-2.264;2023-10-09T01:28:40;15.60;99.90
6357;DHT22;3211;53.452;-2.264;2023-10-09T01:31:08;15.60;99.90
6357;DHT22;3211;53.452;-2.264;2023-10-09T01:33:35;15.60;99.90
6357;DHT22;3211;53.452;-2.264;2023-10-09T01:36:03;15.60;99.90
6357;DHT22;3211;53.452;-2.264;2023-10-09T01:38:31;15.60;99.90
6357;DHT22;3211;53.452;-2.264;2023-10-09T01:41:11;15.50;99.90
6357;DHT22;3211;53.452;-2.264;2023-10-09T01:43:41;15.40;99.90
6357;DHT22;3211;53.452;-2.264;2023-10-09T01:46:10;15.40;99.90
6357;DHT22;3211;53.452;-2.264;2023-10-09T01:48:41;15.50;99.90
6357;DHT22;3211;53.452;-2.264;2023-10-09T01:51:13;15.50;99.90
6357;DHT22;3211;53.452;-2.264;2023-10-09T01:53:43;15.60;99.90
6357;DHT22;3211;53.452;-2.264;2023-10-09T01:56:12;15.50;99.90
6357;DHT22;3211;53.452;-2.264;2023-10-09T01:58:42;15.50;99.90
6357;DHT22;3211;53.452;-2.264;2023-10-09T02:01:12;15.40;99.90
6357;DHT22;3211;53.452;-2.264;2023-10-09T02:03:40;15.50;99.90
6357;DHT22;3211;53.452;-2.264;2023-10-09T02:06:08;15.60;99.90
6357;DHT22;3211;53.452;-2.264;2023-10-09T02:08:52;15.60;99.90
6357;DHT22;3211;53.452;-2.264;2023-10-09T02:11:20;15.60;99.90
6357;DHT22;3211;53.452;-2.264;2023-10-09T02:14:05;15.50;99.90
6357;DHT22;3211;53.452;-2.264;2023-10-09T02:16:45;15.60;99.90
6357;DHT22;3211;53.452;-2.264;2023-10-09T02:19:28;15.60;99.90
6357;DHT22;3211;53.452;-2.264;2023-10-09T02:21:57;15.50;99.90
6357;DHT22;3211;53.452;-2.264;2023-10-09T02:24:26;15.40;99.90
6357;DHT22;3211;53.452;-2.264;2023-10-09T02:27:17;15.40;99.90
6357;DHT22;3211;53.452;-2.264;2023-10-09T02:30:07;15.40;99.90
6357;DHT22;3211;53.452;-2.264;2023-10-09T02:32:44;15.40;99.90
6357;DHT22;3211;53.452;-2.264;2023-10-09T02:35:14;15.50;99.90
6357;DHT22;3211;53.452;-2.264;2023-10-09T02:37:49;15.40;99.90
6357;DHT22;3211;53.452;-2.264;2023-10-09T02:40:18;15.40;99.90
6357;DHT22;3211;53.452;-2.264;2023-10-09T02:42:52;15.40;99.90
6357;DHT22;3211;53.452;-2.264;2023-10-09T02:45:19;15.40;99.90
6357;DHT22;3211;53.452;-2.264;2023-10-09T02:47:54;15.40;99.90
6357;DHT22;3211;53.452;-2.264;2023-10-09T02:50:22;15.30;99.90
6357;DHT22;3211;53.452;-2.264;2023-10-09T02:52:53;15.20;99.90
6357;DHT22;3211;53.452;-2.264;2023-10-09T02:55:26;15.20;99.90
6357;DHT22;3211;53.452;-2.264;2023-10-09T02:57:55;15.30;99.90
6357;DHT22;3211;53.452;-2.264;2023-10-09T03:00:33;15.30;99.90
6357;DHT22;3211;53.452;-2.264;2023-10-09T03:03:03;15.40;99.90
6357;DHT22;3211;53.452;-2.264;2023-10-09T03:05:32;15.20;99.90
6357;DHT22;3211;53.452;-2.264;2023-10-09T03:08:00;15.20;99.90
6357;DHT22;3211;53.452;-2.264;2023-10-09T03:10:27;15.10;99.90
6357;DHT22;3211;53.452;-2.264;2023-10-09T03:12:56;15.30;99.90
6357;DHT22;3211;53.452;-2.264;2023-10-09T03:15:27;15.30;99.90
6357;DHT22;3211;53.452;-2.264;2023-10-09T03:17:55;15.30;99.90
6357;DHT22;3211;53.452;-2.264;2023-10-09T03:20:24;15.30;99.90
6357;DHT22;3211;53.452;-2.264;2023-10-09T03:22:52;15.30;99.90
6357;DHT22;3211;53.452;-2.264;2023-10-09T03:25:19;15.40;99.90
6357;DHT22;3211;53.452;-2.264;2023-10-09T03:27:46;15.40;99.90
6357;DHT22;3211;53.452;-2.264;2023-10-09T03:30:17;15.40;99.90
6357;DHT22;3211;53.452;-2.264;2023-10-09T03:32:48;15.40;99.90
6357;DHT22;3211;53.452;-2.264;2023-10-09T03:35:17;15.40;99.90
6357;DHT22;3211;53.452;-2.264;2023-10-09T03:37:51;15.30;99.90
6357;DHT22;3211;53.452;-2.264;2023-10-09T03:40:18;15.20;99.90
6357;DHT22;3211;53.452;-2.264;2023-10-09T03:42:46;15.20;99.90
6357;DHT22;3211;53.452;-2.264;2023-10-09T03:45:15;15.20;99.90
6357;DHT22;3211;53.452;-2.264;2023-10-09T03:47:53;15.20;99.90
6357;DHT22;3211;53.452;-2.264;2023-10-09T03:50:34;15.30;99.90
6357;DHT22;3211;53.452;-2.264;2023-10-09T03:53:04;15.40;99.90
6357;DHT22;3211;53.452;-2.264;2023-10-09T03:55:34;15.30;99.90
6357;DHT22;3211;53.452;-2.264;2023-10-09T03:58:04;15.30;99.90
6357;DHT22;3211;53.452;-2.264;2023-10-09T04:00:33;15.30;99.90
6357;DHT22;3211;53.452;-2.264;2023-10-09T04:03:10;15.30;99.90
6357;DHT22;3211;53.452;-2.264;2023-10-09T04:05:39;15.20;99.90
6357;DHT22;3211;53.452;-2.264;2023-10-09T04:08:08;15.20;99.90
6357;DHT22;3211;53.452;-2.264;2023-10-09T04:10:38;15.10;99.90
6357;DHT22;3211;53.452;-2.264;2023-10-09T04:13:18;15.10;99.90
6357;DHT22;3211;53.452;-2.264;2023-10-09T04:15:50;15.10;99.90
6357;DHT22;3211;53.452;-2.264;2023-10-09T04:18:20;15.20;99.90
6357;DHT22;3211;53.452;-2.264;2023-10-09T04:20:54;15.10;99.90
6357;DHT22;3211;53.452;-2.264;2023-10-09T04:23:38;15.20;99.90
6357;DHT22;3211;53.452;-2.264;2023-10-09T04:26:19;15.20;99.90
6357;DHT22;3211;53.452;-2.264;2023-10-09T04:28:46;15.20;99.90
6357;DHT22;3211;53.452;-2.264;2023-10-09T04:31:18;15.20;99.90
6357;DHT22;3211;53.452;-2.264;2023-10-09T04:33:47;15.10;99.90
6357;DHT22;3211;53.452;-2.264;2023-10-09T04:36:40;15.10;99.90
6357;DHT22;3211;53.452;-2.264;2023-10-09T04:39:15;15.10;99.90
6357;DHT22;3211;53.452;-2.264;2023-10-09T04:42:01;15.10;99.90
6357;DHT22;3211;53.452;-2.264;2023-10-09T04:45:00;15.00;99.90
6357;DHT22;3211;53.452;-2.264;2023-10-09T04:47:42;14.90;99.90
6357;DHT22;3211;53.452;-2.264;2023-10-09T04:50:23;14.90;99.90
6357;DHT22;3211;53.452;-2.264;2023-10-09T04:53:08;14.90;99.90
6357;DHT22;3211;53.452;-2.264;2023-10-09T04:55:49;15.00;99.90
6357;DHT22;3211;53.452;-2.264;2023-10-09T04:58:23;15.10;99.90
6357;DHT22;3211;53.452;-2.264;2023-10-09T05:00:52;15.00;99.90
6357;DHT22;3211;53.452;-2.264;2023-10-09T05:03:31;15.10;99.90
6357;DHT22;3211;53.452;-2.264;2023-10-09T05:06:10;15.20;99.90
6357;DHT22;3211;53.452;-2.264;2023-10-09T05:08:48;15.10;99.90
6357;DHT22;3211;53.452;-2.264;2023-10-09T05:11:14;15.20;99.90
6357;DHT22;3211;53.452;-2.264;2023-10-09T05:14:00;15.20;99.90
6357;DHT22;3211;53.452;-2.264;2023-10-09T05:16:41;15.20;99.90
6357;DHT22;3211;53.452;-2.264;2023-10-09T05:19:21;15.30;99.90
6357;DHT22;3211;53.452;-2.264;2023-10-09T05:22:10;15.40;99.90
6357;DHT22;3211;53.452;-2.264;2023-10-09T05:24:56;15.40;99.90
6357;DHT22;3211;53.452;-2.264;2023-10-09T05:27:23;15.40;99.90
6357;DHT22;3211;53.452;-2.264;2023-10-09T05:30:10;15.30;99.90
6357;DHT22;3211;53.452;-2.264;2023-10-09T05:32:53;15.40;99.90
6357;DHT22;3211;53.452;-2.264;2023-10-09T05:35:25;15.50;99.90
6357;DHT22;3211;53.452;-2.264;2023-10-09T05:38:07;15.50;99.90
6357;DHT22;3211;53.452;-2.264;2023-10-09T05:40:49;15.40;99.90
6357;DHT22;3211;53.452;-2.264;2023-10-09T05:43:19;15.50;99.90
6357;DHT22;3211;53.452;-2.264;2023-10-09T05:46:01;15.50;99.90
6357;DHT22;3211;53.452;-2.264;2023-10-09T05:48:41;15.60;99.90
6357;DHT22;3211;53.452;-2.264;2023-10-09T05:51:22;15.60;99.90
6357;DHT22;3211;53.452;-2.264;2023-10-09T05:54:06;15.70;99.90
6357;DHT22;3211;53.452;-2.264;2023-10-09T05:57:10;15.70;99.90
6357;DHT22;3211;53.452;-2.264;2023-10-09T05:59:54;15.60;99.90
6357;DHT22;3211;53.452;-2.264;2023-10-09T06:02:38;15.60;99.90
6357;DHT22;3211;53.452;-2.264;2023-10-09T06:05:31;15.50;99.90
6357;DHT22;3211;53.452;-2.264;2023-10-09T06:08:09;15.50;99.90
6357;DHT22;3211;53.452;-2.264;2023-10-09T06:10:38;15.70;99.90
6357;DHT22;3211;53.452;-2.264;2023-10-09T06:13:10;15.70;99.90
6357;DHT22;3211;53.452;-2.264;2023-10-09T06:15:54;15.70;99.90
6357;DHT22;3211;53.452;-2.264;2023-10-09T06:18:46;15.60;99.90
6357;DHT22;3211;53.452;-2.264;2023-10-09T06:21:20;15.60;99.90
6357;DHT22;3211;53.452;-2.264;2023-10-09T06:24:27;15.60;99.90
6357;DHT22;3211;53.452;-2.264;2023-10-09T06:26:59;15.60;99.90
6357;DHT22;3211;53.452;-2.264;2023-10-09T06:30:10;15.50;99.90
6357;DHT22;3211;53.452;-2.264;2023-10-09T06:32:40;15.60;99.90
6357;DHT22;3211;53.452;-2.264;2023-10-09T06:35:16;15.60;99.90
6357;DHT22;3211;53.452;-2.264;2023-10-09T06:37:44;15.70;99.90
6357;DHT22;3211;53.452;-2.264;2023-10-09T06:40:31;15.70;99.90
6357;DHT22;3211;53.452;-2.264;2023-10-09T06:43:16;15.70;99.90
6357;DHT22;3211;53.452;-2.264;2023-10-09T06:45:53;15.70;99.90
6357;DHT22;3211;53.452;-2.264;2023-10-09T06:48:23;15.60;99.90
6357;DHT22;3211;53.452;-2.264;2023-10-09T06:51:21;15.70;99.90
6357;DHT22;3211;53.452;-2.264;2023-10-09T06:54:06;15.80;99.90
6357;DHT22;3211;53.452;-2.264;2023-10-09T06:56:44;15.80;99.90
6357;DHT22;3211;53.452;-2.264;2023-10-09T06:59:25;15.80;99.90
6357;DHT22;3211;53.452;-2.264;2023-10-09T07:02:07;15.80;99.90
6357;DHT22;3211;53.452;-2.264;2023-10-09T07:04:57;15.80;99.90
6357;DHT22;3211;53.452;-2.264;2023-10-09T07:07:36;15.80;99.90
6357;DHT22;3211;53.452;-2.264;2023-10-09T07:10:16;15.90;99.90
6357;DHT22;3211;53.452;-2.264;2023-10-09T07:13:06;16.00;99.90
6357;DHT22;3211;53.452;-2.264;2023-10-09T07:15:33;15.90;99.90
6357;DHT22;3211;53.452;-2.264;2023-10-09T07:18:20;15.90;99.90
6357;DHT22;3211;53.452;-2.264;2023-10-09T07:20:49;16.00;99.90
6357;DHT22;3211;53.452;-2.264;2023-10-09T07:23:37;16.00;99.90
6357;DHT22;3211;53.452;-2.264;2023-10-09T07:26:13;16.00;99.90
6357;DHT22;3211;53.452;-2.264;2023-10-09T07:28:50;16.00;99.90
6357;DHT22;3211;53.452;-2.264;2023-10-09T07:31:26;16.10;99.90
6357;DHT22;3211;53.452;-2.264;2023-10-09T07:33:55;16.10;99.90
6357;DHT22;3211;53.452;-2.264;2023-10-09T07:36:26;16.10;99.90
6357;DHT22;3211;53.452;-2.264;2023-10-09T07:39:04;16.10;99.90
6357;DHT22;3211;53.452;-2.264;2023-10-09T07:41:41;16.20;99.90
6357;DHT22;3211;53.452;-2.264;2023-10-09T07:44:23;16.20;99.90
6357;DHT22;3211;53.452;-2.264;2023-10-09T07:47:04;16.20;99.90
6357;DHT22;3211;53.452;-2.264;2023-10-09T07:49:43;16.20;99.90
6357;DHT22;3211;53.452;-2.264;2023-10-09T07:52:15;16.30;99.90
6357;DHT22;3211;53.452;-2.264;2023-10-09T07:54:42;16.30;99.90
6357;DHT22;3211;53.452;-2.264;2023-10-09T07:57:16;16.30;99.90
6357;DHT22;3211;53.452;-2.264;2023-10-09T07:59:44;16.30;99.90
6357;DHT22;3211;53.452;-2.264;2023-10-09T08:02:28;16.30;99.90
6357;DHT22;3211;53.452;-2.264;2023-10-09T08:05:05;16.30;99.90
6357;DHT22;3211;53.452;-2.264;2023-10-09T08:07:44;16.30;99.90
6357;DHT22;3211;53.452;-2.264;2023-10-09T08:10:20;16.40;99.90
6357;DHT22;3211;53.452;-2.264;2023-10-09T08:13:05;16.40;99.90
6357;DHT22;3211;53.452;-2.264;2023-10-09T08:15:59;16.50;99.90
6357;DHT22;3211;53.452;-2.264;2023-10-09T08:20:57;16.50;99.90
6357;DHT22;3211;53.452;-2.264;2023-10-09T08:23:41;16.50;99.90
6357;DHT22;3211;53.452;-2.264;2023-10-09T08:26:18;16.50;99.90
6357;DHT22;3211;53.452;-2.264;2023-10-09T08:28:55;16.60;99.90
6357;DHT22;3211;53.452;-2.264;2023-10-09T08:31:43;16.60;99.90
6357;DHT22;3211;53.452;-2.264;2023-10-09T08:34:13;16.70;99.90
6357;DHT22;3211;53.452;-2.264;2023-10-09T08:36:51;16.70;99.90
6357;DHT22;3211;53.452;-2.264;2023-10-09T08:39:20;16.70;99.90
6357;DHT22;3211;53.452;-2.264;2023-10-09T08:41:59;16.70;99.90
6357;DHT22;3211;53.452;-2.264;2023-10-09T08:44:27;16.70;99.90
6357;DHT22;3211;53.452;-2.264;2023-10-09T08:46:59;16.80;99.90
6357;DHT22;3211;53.452;-2.264;2023-10-09T08:49:26;16.80;99.90
6357;DHT22;3211;53.452;-2.264;2023-10-09T08:51:54;16.80;99.90
6357;DHT22;3211;53.452;-2.264;2023-10-09T08:54:21;17.00;98.70
6357;DHT22;3211;53.452;-2.264;2023-10-09T08:56:48;16.90;58.40
6357;DHT22;3211;53.452;-2.264;2023-10-09T08:59:20;17.00;37.00
6357;DHT22;3211;53.452;-2.264;2023-10-09T09:01:47;16.90;1.00
6357;DHT22;3211;53.452;-2.264;2023-10-09T09:04:41;17.00;1.00
6357;DHT22;3211;53.452;-2.264;2023-10-09T09:07:25;17.10;1.00
6357;DHT22;3211;53.452;-2.264;2023-10-09T09:09:56;17.00;1.00
6357;DHT22;3211;53.452;-2.264;2023-10-09T09:12:27;17.10;19.20
6357;DHT22;3211;53.452;-2.264;2023-10-09T09:14:57;17.10;16.20
6357;DHT22;3211;53.452;-2.264;2023-10-09T09:17:30;17.10;20.00
6357;DHT22;3211;53.452;-2.264;2023-10-09T09:20:06;17.20;43.50
6357;DHT22;3211;53.452;-2.264;2023-10-09T09:22:52;17.30;99.90
6357;DHT22;3211;53.452;-2.264;2023-10-09T09:25:21;17.30;99.90
6357;DHT22;3211;53.452;-2.264;2023-10-09T09:27:50;17.20;16.70
6357;DHT22;3211;53.452;-2.264;2023-10-09T09:30:24;17.30;1.00
6357;DHT22;3211;53.452;-2.264;2023-10-09T09:32:52;17.30;1.00
6357;DHT22;3211;53.452;-2.264;2023-10-09T09:35:35;17.30;1.00
6357;DHT22;3211;53.452;-2.264;2023-10-09T09:38:02;17.30;1.00
6357;DHT22;3211;53.452;-2.264;2023-10-09T09:40:33;17.20;12.70
6357;DHT22;3211;53.452;-2.264;2023-10-09T09:43:07;17.30;97.50
6357;DHT22;3211;53.452;-2.264;2023-10-09T09:45:47;17.30;53.10
6357;DHT22;3211;53.452;-2.264;2023-10-09T09:48:16;17.40;14.10
6357;DHT22;3211;53.452;-2.264;2023-10-09T09:50:45;17.50;25.40
6357;DHT22;3211;53.452;-2.264;2023-10-09T09:53:13;17.40;49.40
6357;DHT22;3211;53.452;-2.264;2023-10-09T09:55:46;17.40;95.30
6357;DHT22;3211;53.452;-2.264;2023-10-09T09:58:18;17.40;99.90
6357;DHT22;3211;53.452;-2.264;2023-10-09T10:00:47;17.50;99.90
6357;DHT22;3211;53.452;-2.264;2023-10-09T10:03:22;17.40;99.90
6357;DHT22;3211;53.452;-2.264;2023-10-09T10:05:52;17.40;99.90
6357;DHT22;3211;53.452;-2.264;2023-10-09T10:08:23;17.40;99.90
6357;DHT22;3211;53.452;-2.264;2023-10-09T10:10:57;17.30;99.90
6357;DHT22;3211;53.452;-2.264;2023-10-09T10:13:55;17.40;99.90
6357;DHT22;3211;53.452;-2.264;2023-10-09T10:16:25;17.40;99.90
6357;DHT22;3211;53.452;-2.264;2023-10-09T10:19:01;17.30;99.90
6357;DHT22;3211;53.452;-2.264;2023-10-09T10:21:48;17.20;99.90
6357;DHT22;3211;53.452;-2.264;2023-10-09T10:24:41;17.20;99.90
6357;DHT22;3211;53.452;-2.264;2023-10-09T10:27:21;17.20;99.90
6357;DHT22;3211;53.452;-2.264;2023-10-09T10:30:29;17.30;99.90
6357;DHT22;3211;53.452;-2.264;2023-10-09T10:33:02;17.30;99.90
6357;DHT22;3211;53.452;-2.264;2023-10-09T10:35:39;17.20;99.90
6357;DHT22;3211;53.452;-2.264;2023-10-09T10:38:30;17.30;99.90
6357;DHT22;3211;53.452;-2.264;2023-10-09T10:41:13;17.40;99.90
6357;DHT22;3211;53.452;-2.264;2023-10-09T10:43:43;17.30;99.90
6357;DHT22;3211;53.452;-2.264;2023-10-09T10:46:25;17.40;99.90
6357;DHT22;3211;53.452;-2.264;2023-10-09T10:49:04;17.50;99.90
6357;DHT22;3211;53.452;-2.264;2023-10-09T10:51:46;17.60;99.90
6357;DHT22;3211;53.452;-2.264;2023-10-09T10:54:22;17.80;99.90
6357;DHT22;3211;53.452;-2.264;2023-10-09T10:57:27;17.80;99.90
6357;DHT22;3211;53.452;-2.264;2023-10-09T11:00:11;17.90;99.90
6357;DHT22;3211;53.452;-2.264;2023-10-09T11:03:01;17.70;99.90
6357;DHT22;3211;53.452;-2.264;2023-10-09T11:05:41;17.70;99.90
6357;DHT22;3211;53.452;-2.264;2023-10-09T11:08:11;17.70;99.90
6357;DHT22;3211;53.452;-2.264;2023-10-09T11:10:40;17.80;99.90
6357;DHT22;3211;53.452;-2.264;2023-10-09T11:13:25;17.90;99.90
6357;DHT22;3211;53.452;-2.264;2023-10-09T11:15:59;18.00;99.90
6357;DHT22;3211;53.452;-2.264;2023-10-09T11:18:41;18.00;99.90
6357;DHT22;3211;53.452;-2.264;2023-10-09T11:21:14;18.10;99.90
6357;DHT22;3211;53.452;-2.264;2023-10-09T11:23:58;18.20;99.90
6357;DHT22;3211;53.452;-2.264;2023-10-09T11:26:26;18.20;99.90
6357;DHT22;3211;53.452;-2.264;2023-10-09T11:29:06;18.30;99.90
6357;DHT22;3211;53.452;-2.264;2023-10-09T11:31:39;18.30;99.90
6357;DHT22;3211;53.452;-2.264;2023-10-09T11:34:18;18.30;99.90
6357;DHT22;3211;53.452;-2.264;2023-10-09T11:36:56;18.50;99.90
6357;DHT22;3211;53.452;-2.264;2023-10-09T11:39:27;18.60;99.90
6357;DHT22;3211;53.452;-2.264;2023-10-09T11:42:07;18.70;99.90
6357;DHT22;3211;53.452;-2.264;2023-10-09T11:44:41;18.80;99.90
6357;DHT22;3211;53.452;-2.264;2023-10-09T11:47:11;18.90;99.90
6357;DHT22;3211;53.452;-2.264;2023-10-09T11:49:50;18.90;99.90
6357;DHT22;3211;53.452;-2.264;2023-10-09T11:52:36;18.90;99.90
6357;DHT22;3211;53.452;-2.264;2023-10-09T11:55:22;18.90;17.40
6357;DHT22;3211;53.452;-2.264;2023-10-09T11:57:52;18.90;90.20
6357;DHT22;3211;53.452;-2.264;2023-10-09T12:00:19;18.80;5.80
6357;DHT22;3211;53.452;-2.264;2023-10-09T12:02:55;18.80;37.80
6357;DHT22;3211;53.452;-2.264;2023-10-09T12:05:22;18.80;99.90
6357;DHT22;3211;53.452;-2.264;2023-10-09T12:07:53;18.90;99.90
6357;DHT22;3211;53.452;-2.264;2023-10-09T12:10:22;18.80;45.20
6357;DHT22;3211;53.452;-2.264;2023-10-09T12:13:11;18.70;79.70
6357;DHT22;3211;53.452;-2.264;2023-10-09T12:15:41;18.80;99.90
6357;DHT22;3211;53.452;-2.264;2023-10-09T12:18:12;18.80;68.80
6357;DHT22;3211;53.452;-2.264;2023-10-09T12:20:41;18.70;96.40
6357;DHT22;3211;53.452;-2.264;2023-10-09T12:23:15;18.80;99.90
6357;DHT22;3211;53.452;-2.264;2023-10-09T12:25:42;18.70;99.90
6357;DHT22;3211;53.452;-2.264;2023-10-09T12:28:12;18.70;73.40
6357;DHT22;3211;53.452;-2.264;2023-10-09T12:30:39;18.70;76.70
6357;DHT22;3211;53.452;-2.264;2023-10-09T12:33:07;18.70;58.90
6357;DHT22;3211;53.452;-2.264;2023-10-09T12:35:36;18.50;99.90
6357;DHT22;3211;53.452;-2.264;2023-10-09T12:38:04;18.60;99.90
6357;DHT22;3211;53.452;-2.264;2023-10-09T12:40:34;18.60;99.90
6357;DHT22;3211;53.452;-2.264;2023-10-09T12:43:02;18.50;99.20
6357;DHT22;3211;53.452;-2.264;2023-10-09T12:45:33;18.60;99.90
6357;DHT22;3211;53.452;-2.264;2023-10-09T12:48:01;18.60;99.90
6357;DHT22;3211;53.452;-2.264;2023-10-09T12:50:34;18.60;99.90
6357;DHT22;3211;53.452;-2.264;2023-10-09T12:53:07;18.50;99.90
6357;DHT22;3211;53.452;-2.264;2023-10-09T12:55:35;18.60;99.90
6357;DHT22;3211;53.452;-2.264;2023-10-09T12:58:06;18.40;99.90
6357;DHT22;3211;53.452;-2.264;2023-10-09T13:00:36;18.50;99.90
6357;DHT22;3211;53.452;-2.264;2023-10-09T13:03:07;18.40;90.50
6357;DHT22;3211;53.452;-2.264;2023-10-09T13:05:46;18.40;99.90
6357;DHT22;3211;53.452;-2.264;2023-10-09T13:08:20;18.40;99.90
6357;DHT22;3211;53.452;-2.264;2023-10-09T13:10:51;18.60;99.90
6357;DHT22;3211;53.452;-2.264;2023-10-09T13:13:26;18.60;99.90
6357;DHT22;3211;53.452;-2.264;2023-10-09T13:16:07;18.50;99.90
6357;DHT22;3211;53.452;-2.264;2023-10-09T13:18:37;18.50;99.90
6357;DHT22;3211;53.452;-2.264;2023-10-09T13:21:04;18.50;99.90
6357;DHT22;3211;53.452;-2.264;2023-10-09T13:23:31;18.40;99.90
6357;DHT22;3211;53.452;-2.264;2023-10-09T13:26:08;18.40;99.90
6357;DHT22;3211;53.452;-2.264;2023-10-09T13:28:48;18.40;99.90
6357;DHT22;3211;53.452;-2.264;2023-10-09T13:31:17;18.40;99.90
6357;DHT22;3211;53.452;-2.264;2023-10-09T13:33:47;18.40;99.90
6357;DHT22;3211;53.452;-2.264;2023-10-09T13:36:15;18.30;99.90
6357;DHT22;3211;53.452;-2.264;2023-10-09T13:38:52;18.40;99.90
6357;DHT22;3211;53.452;-2.264;2023-10-09T13:41:20;18.40;99.90
6357;DHT22;3211;53.452;-2.264;2023-10-09T13:43:47;18.50;99.90
6357;DHT22;3211;53.452;-2.264;2023-10-09T13:46:18;18.40;99.90
6357;DHT22;3211;53.452;-2.264;2023-10-09T13:48:45;18.50;99.90
6357;DHT22;3211;53.452;-2.264;2023-10-09T13:51:14;18.50;99.90
6357;DHT22;3211;53.452;-2.264;2023-10-09T13:53:43;18.40;99.90
6357;DHT22;3211;53.452;-2.264;2023-10-09T13:56:13;18.40;99.90
6357;DHT22;3211;53.452;-2.264;2023-10-09T13:58:45;18.40;99.90
6357;DHT22;3211;53.452;-2.264;2023-10-09T14:01:12;18.40;99.90
6357;DHT22;3211;53.452;-2.264;2023-10-09T14:03:48;18.40;99.90
6357;DHT22;3211;53.452;-2.264;2023-10-09T14:06:18;18.40;99.90
6357;DHT22;3211;53.452;-2.264;2023-10-09T14:08:56;18.50;99.90
6357;DHT22;3211;53.452;-2.264;2023-10-09T14:11:23;18.50;99.90
6357;DHT22;3211;53.452;-2.264;2023-10-09T14:13:51;18.50;99.90
6357;DHT22;3211;53.452;-2.264;2023-10-09T14:16:18;18.40;99.90
6357;DHT22;3211;53.452;-2.264;2023-10-09T14:18:54;18.40;99.90
6357;DHT22;3211;53.452;-2.264;2023-10-09T14:21:24;18.40;99.90
6357;DHT22;3211;53.452;-2.264;2023-10-09T14:23:52;18.40;99.90
6357;DHT22;3211;53.452;-2.264;2023-10-09T14:26:23;18.60;99.90
6357;DHT22;3211;53.452;-2.264;2023-10-09T14:28:51;18.40;99.90
6357;DHT22;3211;53.452;-2.264;2023-10-09T14:31:19;18.40;99.90
6357;DHT22;3211;53.452;-2.264;2023-10-09T14:33:53;18.40;99.90
6357;DHT22;3211;53.452;-2.264;2023-10-09T14:36:20;18.40;99.90
6357;DHT22;3211;53.452;-2.264;2023-10-09T14:38:49;18.40;99.90
6357;DHT22;3211;53.452;-2.264;2023-10-09T14:41:20;18.40;99.90
6357;DHT22;3211;53.452;-2.264;2023-10-09T14:43:49;18.40;99.90
6357;DHT22;3211;53.452;-2.264;2023-10-09T14:46:17;18.40;99.90
6357;DHT22;3211;53.452;-2.264;2023-10-09T14:48:49;18.50;99.90
6357;DHT22;3211;53.452;-2.264;2023-10-09T14:51:20;18.50;99.90
6357;DHT22;3211;53.452;-2.264;2023-10-09T14:53:53;18.40;99.90
6357;DHT22;3211;53.452;-2.264;2023-10-09T14:56:23;18.40;99.90
6357;DHT22;3211;53.452;-2.264;2023-10-09T14:58:55;18.20;99.90
6357;DHT22;3211;53.452;-2.264;2023-10-09T15:01:24;18.20;99.90
6357;DHT22;3211;53.452;-2.264;2023-10-09T15:03:55;18.30;99.90
6357;DHT22;3211;53.452;-2.264;2023-10-09T15:06:24;18.30;99.90
6357;DHT22;3211;53.452;-2.264;2023-10-09T15:08:53;18.40;99.90
6357;DHT22;3211;53.452;-2.264;2023-10-09T15:11:25;18.40;99.90
6357;DHT22;3211;53.452;-2.264;2023-10-09T15:13:54;18.50;99.90
6357;DHT22;3211;53.452;-2.264;2023-10-09T15:16:21;18.50;99.90
6357;DHT22;3211;53.452;-2.264;2023-10-09T15:18:53;18.40;99.90
6357;DHT22;3211;53.452;-2.264;2023-10-09T15:21:20;18.40;99.90
6357;DHT22;3211;53.452;-2.264;2023-10-09T15:23:50;18.50;99.90
6357;DHT22;3211;53.452;-2.264;2023-10-09T15:26:20;18.60;99.90
6357;DHT22;3211;53.452;-2.264;2023-10-09T15:28:48;18.60;99.90
6357;DHT22;3211;53.452;-2.264;2023-10-09T15:31:16;18.60;99.90
6357;DHT22;3211;53.452;-2.264;2023-10-09T15:33:44;18.60;99.90
6357;DHT22;3211;53.452;-2.264;2023-10-09T15:36:14;18.40;99.90
6357;DHT22;3211;53.452;-2.264;2023-10-09T15:38:42;18.40;99.90
6357;DHT22;3211;53.452;-2.264;2023-10-09T15:41:10;18.40;99.90
6357;DHT22;3211;53.452;-2.264;2023-10-09T15:43:41;18.40;99.90
6357;DHT22;3211;53.452;-2.264;2023-10-09T15:46:11;18.40;99.90
6357;DHT22;3211;53.452;-2.264;2023-10-09T15:48:41;18.30;99.90
6357;DHT22;3211;53.452;-2.264;2023-10-09T15:51:10;18.30;99.90
6357;DHT22;3211;53.452;-2.264;2023-10-09T15:53:41;18.20;99.90
6357;DHT22;3211;53.452;-2.264;2023-10-09T15:56:09;18.20;99.90
6357;DHT22;3211;53.452;-2.264;2023-10-09T15:58:38;18.20;99.90
6357;DHT22;3211;53.452;-2.264;2023-10-09T16:01:09;18.20;99.90
6357;DHT22;3211;53.452;-2.264;2023-10-09T16:03:39;18.30;99.90
6357;DHT22;3211;53.452;-2.264;2023-10-09T16:06:08;18.20;99.90
6357;DHT22;3211;53.452;-2.264;2023-10-09T16:08:39;18.20;99.90
6357;DHT22;3211;53.452;-2.264;2023-10-09T16:11:06;18.10;99.90
6357;DHT22;3211;53.452;-2.264;2023-10-09T16:13:35;18.20;99.90
6357;DHT22;3211;53.452;-2.264;2023-10-09T16:16:04;18.20;99.90
6357;DHT22;3211;53.452;-2.264;2023-10-09T16:18:34;18.20;99.90
6357;DHT22;3211;53.452;-2.264;2023-10-09T16:21:01;18.20;99.90
6357;DHT22;3211;53.452;-2.264;2023-10-09T16:23:30;18.10;99.90
6357;DHT22;3211;53.452;-2.264;2023-10-09T16:25:57;18.00;99.90
6357;DHT22;3211;53.452;-2.264;2023-10-09T16:28:25;18.00;99.90
6357;DHT22;3211;53.452;-2.264;2023-10-09T16:30:53;17.90;99.90
6357;DHT22;3211;53.452;-2.264;2023-10-09T16:33:22;18.00;99.90
6357;DHT22;3211;53.452;-2.264;2023-10-09T16:35:49;18.00;99.90